createdAt,value
2022-12-03T00:02:26.437Z,23.85
2022-12-03T00:04:53.184Z,27.30
2022-12-03T00:07:19.694Z,20.40
2022-12-03T00:09:46.087Z,19.88
2022-12-03T00:12:12.419Z,25.77
2022-12-03T00:14:43.025Z,24.50
2022-12-03T00:17:10.923Z,23.92
2022-12-03T00:19:37.246Z,23.15
2022-12-03T00:22:03.564Z,27.00
2022-12-03T00:24:29.865Z,23.92
2022-12-03T00:26:56.665Z,24.50
2022-12-03T00:29:22.958Z,19.80
2022-12-03T00:31:49.303Z,22.23
2022-12-03T00:34:15.649Z,27.00
2022-12-03T00:36:41.999Z,24.38
2022-12-03T00:39:08.318Z,23.70
2022-12-03T00:41:34.687Z,25.05
2022-12-03T00:44:01.046Z,24.25
2022-12-03T00:46:27.462Z,23.15
2022-12-03T00:48:53.814Z,26.63
2022-12-03T00:51:20.147Z,25.77
2022-12-03T00:53:46.507Z,26.63
2022-12-03T00:56:12.830Z,27.42
2022-12-03T00:58:39.155Z,23.70
2022-12-03T01:01:05.553Z,24.55
2022-12-03T01:03:31.880Z,22.67
2022-12-03T01:05:58.206Z,22.10
2022-12-03T01:08:24.519Z,25.73
2022-12-03T01:10:50.917Z,26.00
2022-12-03T01:13:17.348Z,26.05
2022-12-03T01:15:43.770Z,26.95
2022-12-03T01:18:10.084Z,23.55
2022-12-03T01:20:36.556Z,22.60
2022-12-03T01:23:02.876Z,26.73
2022-12-03T01:25:29.190Z,22.85
2022-12-03T01:27:55.512Z,22.67
2022-12-03T01:30:21.912Z,21.48
2022-12-03T01:32:48.203Z,23.30
2022-12-03T01:35:14.559Z,23.15
2022-12-03T01:37:40.850Z,23.70
2022-12-03T01:40:07.803Z,22.60
2022-12-03T01:42:36.610Z,24.25
2022-12-03T01:45:03.577Z,27.73
2022-12-03T01:47:31.140Z,22.23
2022-12-03T01:50:02.746Z,26.25
2022-12-03T01:52:31.397Z,23.08
2022-12-03T01:54:59.119Z,25.65
2022-12-03T01:57:26.990Z,26.77
2022-12-03T01:59:54.079Z,27.02
2022-12-03T02:02:23.339Z,24.52
2022-12-03T02:04:50.319Z,26.77
2022-12-03T02:07:17.862Z,31.23
2022-12-03T02:09:44.172Z,25.23
2022-12-03T02:12:10.870Z,23.00
2022-12-03T02:14:40.257Z,26.27
2022-12-03T02:17:07.087Z,27.70
2022-12-03T02:19:34.460Z,25.88
2022-12-03T02:22:21.003Z,25.40
2022-12-03T02:24:53.309Z,22.55
2022-12-03T02:27:19.880Z,27.85
2022-12-03T02:29:46.208Z,27.80
2022-12-03T02:32:12.514Z,24.98
2022-12-03T02:34:42.862Z,21.80
2022-12-03T02:37:11.584Z,25.35
2022-12-03T02:39:40.019Z,22.80
2022-12-03T02:42:25.087Z,23.33
2022-12-03T02:44:51.806Z,26.42
2022-12-03T02:47:18.816Z,30.20
2022-12-03T02:49:45.249Z,23.60
2022-12-03T02:52:11.649Z,26.58
2022-12-03T02:54:38.127Z,27.38
2022-12-03T02:57:04.703Z,22.80
2022-12-03T02:59:31.112Z,25.52
2022-12-03T03:01:57.568Z,22.70
2022-12-03T03:04:24.848Z,23.05
2022-12-03T03:06:51.863Z,25.35
2022-12-03T03:09:18.927Z,26.92
2022-12-03T03:11:45.266Z,30.65
2022-12-03T03:14:11.702Z,26.25
2022-12-03T03:16:38.222Z,24.85
2022-12-03T03:19:04.645Z,23.60
2022-12-03T03:21:30.986Z,25.27
2022-12-03T03:23:57.314Z,25.90
2022-12-03T03:26:23.690Z,25.02
2022-12-03T03:28:51.107Z,23.33
2022-12-03T03:31:19.085Z,25.30
2022-12-03T03:33:46.902Z,28.25
2022-12-03T03:36:14.042Z,20.85
2022-12-03T03:38:40.504Z,24.92
2022-12-03T03:41:08.039Z,26.52
2022-12-03T03:43:35.004Z,22.95
2022-12-03T03:46:03.309Z,23.20
2022-12-03T03:48:29.666Z,22.65
2022-12-03T03:50:56.260Z,23.98
2022-12-03T03:53:23.039Z,24.60
2022-12-03T03:55:49.714Z,20.60
2022-12-03T03:58:16.203Z,23.45
2022-12-03T04:00:43.920Z,24.10
2022-12-03T04:03:10.861Z,21.40
2022-12-03T04:05:37.263Z,24.13
2022-12-03T04:08:03.779Z,24.20
2022-12-03T04:10:48.943Z,21.67
2022-12-03T04:13:15.274Z,22.45
2022-12-03T04:15:41.726Z,24.13
2022-12-03T04:18:26.506Z,22.38
2022-12-03T04:21:12.788Z,22.75
2022-12-03T04:26:24.176Z,22.50
2022-12-03T04:28:50.480Z,25.27
2022-12-03T04:31:35.253Z,21.55
2022-12-03T04:34:20.354Z,21.73
2022-12-03T04:36:47.427Z,25.55
2022-12-03T04:39:13.878Z,25.35
2022-12-03T04:41:40.295Z,24.80
2022-12-03T04:44:25.181Z,23.05
2022-12-03T04:46:51.488Z,21.48
2022-12-03T04:49:17.792Z,23.00
2022-12-03T04:51:44.188Z,25.15
2022-12-03T04:54:10.506Z,29.42
2022-12-03T04:56:36.903Z,26.15
2022-12-03T04:59:03.427Z,23.77
2022-12-03T05:01:29.855Z,21.58
2022-12-03T05:03:56.249Z,25.17
2022-12-03T05:06:22.651Z,31.83
2022-12-03T05:08:49.011Z,28.75
2022-12-03T05:11:15.558Z,27.85
2022-12-03T05:13:43.120Z,28.83
2022-12-03T05:16:09.654Z,23.85
2022-12-03T05:18:36.037Z,28.60
2022-12-03T05:21:02.318Z,27.52
2022-12-03T05:23:28.616Z,25.83
2022-12-03T05:25:54.911Z,26.83
2022-12-03T05:28:23.119Z,29.92
2022-12-03T05:30:49.584Z,28.05
2022-12-03T05:33:16.077Z,28.58
2022-12-03T05:35:42.377Z,27.17
2022-12-03T05:38:08.686Z,27.60
2022-12-03T05:40:35.055Z,29.20
2022-12-03T05:43:01.793Z,24.50
2022-12-03T05:45:32.586Z,25.10
2022-12-03T05:47:59.574Z,27.90
2022-12-03T05:50:27.352Z,27.00
2022-12-03T05:52:53.741Z,28.65
2022-12-03T05:55:20.094Z,28.02
2022-12-03T05:57:46.872Z,31.88
2022-12-03T06:00:18.042Z,27.80
2022-12-03T06:02:44.854Z,26.55
2022-12-03T06:05:12.024Z,28.58
2022-12-03T06:07:38.585Z,24.95
2022-12-03T06:10:05.842Z,26.88
2022-12-03T06:12:32.369Z,28.25
2022-12-03T06:14:59.569Z,28.73
2022-12-03T06:17:26.286Z,29.27
2022-12-03T06:19:52.935Z,28.10
2022-12-03T06:22:19.621Z,28.65
2022-12-03T06:24:45.991Z,28.60
2022-12-03T06:27:12.692Z,26.27
2022-12-03T06:29:38.986Z,27.45
2022-12-03T06:32:06.002Z,29.00
2022-12-03T06:34:32.378Z,27.23
2022-12-03T06:36:58.826Z,28.08
2022-12-03T06:39:25.154Z,30.40
2022-12-03T06:41:51.479Z,26.67
2022-12-03T06:44:17.905Z,30.40
2022-12-03T06:46:44.367Z,28.73
2022-12-03T06:49:10.795Z,26.13
2022-12-03T06:51:37.228Z,25.92
2022-12-03T06:54:03.791Z,27.05
2022-12-03T06:56:35.813Z,28.17
2022-12-03T06:59:04.278Z,30.45
2022-12-03T07:01:30.634Z,28.60
2022-12-03T07:03:56.988Z,26.80
2022-12-03T07:06:23.309Z,28.58
2022-12-03T07:08:49.615Z,28.13
2022-12-03T07:11:39.956Z,27.85
2022-12-03T07:14:07.867Z,25.95
2022-12-03T07:16:37.557Z,25.88
2022-12-03T07:19:04.844Z,25.35
2022-12-03T07:21:31.401Z,22.77
2022-12-03T07:23:57.893Z,23.50
2022-12-03T07:26:24.235Z,27.10
2022-12-03T07:28:50.542Z,21.08
2022-12-03T07:31:17.010Z,26.38
2022-12-03T07:33:43.505Z,25.70
2022-12-03T07:36:10.070Z,24.92
2022-12-03T07:38:36.394Z,24.33
2022-12-03T07:41:02.740Z,28.02
2022-12-03T07:43:29.048Z,28.88
2022-12-03T07:45:55.334Z,25.63
2022-12-03T07:48:21.642Z,28.42
2022-12-03T07:50:47.943Z,28.70
2022-12-03T07:53:14.250Z,28.38
2022-12-03T07:55:40.903Z,28.75
2022-12-03T07:58:07.316Z,28.63
2022-12-03T08:00:33.645Z,28.08
2022-12-03T08:03:00.030Z,27.30
2022-12-03T08:05:26.901Z,28.80
2022-12-03T08:07:53.272Z,28.55
2022-12-03T08:10:19.677Z,28.15
2022-12-03T08:12:46.534Z,29.85
2022-12-03T08:15:14.434Z,27.70
2022-12-03T08:17:42.328Z,29.98
2022-12-03T08:20:12.769Z,30.48
2022-12-03T08:22:39.195Z,30.52
2022-12-03T08:25:25.855Z,31.17
2022-12-03T08:27:53.852Z,33.40
2022-12-03T08:30:20.371Z,32.03
2022-12-03T08:32:47.138Z,27.67
2022-12-03T08:35:14.571Z,30.80
2022-12-03T08:37:41.087Z,31.67
2022-12-03T08:40:21.728Z,29.23
2022-12-03T08:42:48.195Z,31.65
2022-12-03T08:45:30.257Z,33.55
2022-12-03T08:47:57.620Z,32.00
2022-12-03T08:50:31.188Z,32.33
2022-12-03T08:53:16.154Z,33.70
2022-12-03T08:55:45.958Z,30.92
2022-12-03T08:58:19.384Z,31.38
2022-12-03T09:00:46.008Z,34.95
2022-12-03T09:03:16.562Z,30.95
2022-12-03T09:05:42.881Z,37.05
2022-12-03T09:08:09.243Z,33.33
2022-12-03T09:10:35.964Z,34.72
2022-12-03T09:13:02.261Z,33.28
2022-12-03T09:15:28.589Z,31.30
2022-12-03T09:17:54.932Z,31.27
2022-12-03T09:20:21.323Z,32.40
2022-12-03T09:22:47.714Z,29.63
2022-12-03T09:25:14.218Z,30.52
2022-12-03T09:27:40.535Z,28.30
2022-12-03T09:30:07.145Z,29.70
2022-12-03T09:32:33.591Z,31.58
2022-12-03T09:34:59.949Z,28.63
2022-12-03T09:37:26.252Z,30.35
2022-12-03T09:39:52.543Z,29.17
2022-12-03T09:42:18.936Z,28.15
2022-12-03T09:44:45.366Z,29.73
2022-12-03T09:47:11.676Z,31.40
2022-12-03T09:49:38.739Z,28.15
2022-12-03T09:52:05.789Z,25.95
2022-12-03T09:54:32.984Z,31.10
2022-12-03T09:57:00.819Z,27.67
2022-12-03T09:59:29.596Z,28.83
2022-12-03T10:01:56.056Z,28.38
2022-12-03T10:04:22.658Z,24.35
2022-12-03T10:06:49.119Z,30.08
2022-12-03T10:09:20.790Z,27.55
2022-12-03T10:11:47.235Z,27.25
2022-12-03T10:14:14.610Z,30.20
2022-12-03T10:16:41.370Z,26.40
2022-12-03T10:19:11.502Z,27.77
2022-12-03T10:21:38.427Z,26.40
2022-12-03T10:24:17.049Z,25.95
2022-12-03T10:26:44.264Z,26.17
2022-12-03T10:29:14.768Z,27.40
2022-12-03T10:31:41.055Z,24.98
2022-12-03T10:34:08.654Z,29.30
2022-12-03T10:36:35.039Z,31.02
2022-12-03T10:39:12.238Z,30.58
2022-12-03T10:41:38.800Z,30.13
2022-12-03T10:44:25.548Z,27.50
2022-12-03T10:47:05.996Z,29.75
2022-12-03T10:49:32.939Z,29.40
2022-12-03T10:51:59.312Z,33.85
2022-12-03T10:54:26.098Z,35.05
2022-12-03T10:56:52.586Z,33.25
2022-12-03T10:59:23.349Z,35.70
2022-12-03T11:01:50.155Z,37.45
2022-12-03T11:04:21.146Z,33.80
2022-12-03T11:06:47.495Z,36.40
2022-12-03T11:09:16.865Z,36.05
2022-12-03T11:11:43.213Z,37.25
2022-12-03T11:14:10.346Z,37.45
2022-12-03T11:16:39.512Z,40.67
2022-12-03T11:19:14.027Z,33.47
2022-12-03T11:21:59.011Z,34.22
2022-12-03T11:24:25.314Z,36.95
2022-12-03T11:26:51.604Z,40.40
2022-12-03T11:29:37.895Z,40.05
2022-12-03T11:34:31.414Z,40.63
2022-12-03T11:37:10.046Z,39.70
2022-12-03T11:39:45.504Z,43.00
2022-12-03T11:42:25.277Z,35.90
2022-12-03T11:45:03.978Z,36.33
2022-12-03T11:47:36.546Z,39.38
2022-12-03T11:50:15.710Z,37.63
2022-12-03T11:52:42.942Z,39.78
2022-12-03T11:55:24.357Z,34.28
2022-12-03T11:57:56.923Z,35.10
2022-12-03T12:00:23.964Z,29.33
2022-12-03T12:02:51.747Z,44.63
2022-12-03T12:05:23.554Z,39.65
2022-12-03T12:07:50.200Z,41.20
2022-12-03T12:10:35.310Z,41.50
2022-12-03T12:13:01.706Z,37.25
2022-12-03T12:15:41.335Z,33.97
2022-12-03T12:18:26.471Z,33.72
2022-12-03T12:20:52.775Z,35.22
2022-12-03T12:23:27.660Z,35.95
2022-12-03T12:26:05.106Z,38.92
2022-12-03T12:28:31.398Z,35.15
2022-12-03T12:30:57.784Z,37.08
2022-12-03T12:33:24.510Z,44.60
2022-12-03T12:35:51.129Z,37.50
2022-12-03T12:38:20.925Z,37.35
2022-12-03T12:40:49.238Z,39.72
2022-12-03T12:43:20.330Z,37.65
2022-12-03T12:45:50.530Z,41.92
2022-12-03T12:48:19.906Z,38.72
2022-12-03T12:50:47.009Z,41.33
2022-12-03T12:53:27.194Z,40.60
2022-12-03T12:55:55.138Z,41.00
2022-12-03T12:58:21.664Z,32.65
2022-12-03T13:00:50.171Z,37.15
2022-12-03T13:03:17.861Z,34.80
2022-12-03T13:05:46.255Z,35.67
2022-12-03T13:08:15.438Z,36.17
2022-12-03T13:10:42.459Z,36.13
2022-12-03T13:13:23.228Z,34.38
2022-12-03T13:16:07.134Z,33.25
2022-12-03T13:18:38.599Z,35.58
2022-12-03T13:21:25.022Z,39.38
2022-12-03T13:23:53.080Z,33.03
2022-12-03T13:26:34.218Z,39.10
2022-12-03T13:29:11.939Z,38.40
2022-12-03T13:31:43.538Z,36.35
2022-12-03T13:34:20.290Z,36.97
2022-12-03T13:36:52.032Z,30.33
2022-12-03T13:39:26.411Z,36.47
2022-12-03T13:42:11.205Z,39.15
2022-12-03T13:44:41.690Z,37.08
2022-12-03T13:47:15.895Z,37.45
2022-12-03T13:49:44.358Z,37.08
2022-12-03T13:52:15.978Z,34.00
2022-12-03T13:54:42.326Z,38.63
2022-12-03T13:57:08.665Z,40.20
2022-12-03T13:59:35.094Z,41.45
2022-12-03T14:02:01.486Z,38.70
2022-12-03T14:04:27.857Z,36.58
2022-12-03T14:06:54.164Z,36.85
2022-12-03T14:09:20.482Z,35.35
2022-12-03T14:12:05.547Z,37.97
2022-12-03T14:14:31.903Z,34.72
2022-12-03T14:17:00.017Z,37.75
2022-12-03T14:19:26.671Z,36.45
2022-12-03T14:21:52.977Z,35.78
2022-12-03T14:24:19.328Z,36.65
2022-12-03T14:26:45.620Z,33.88
2022-12-03T14:29:11.938Z,39.67
2022-12-03T14:31:38.290Z,40.25
2022-12-03T14:34:04.694Z,35.88
2022-12-03T14:36:31.013Z,32.42
2022-12-03T14:38:57.342Z,33.72
2022-12-03T14:41:42.214Z,38.65
2022-12-03T14:44:08.502Z,36.95
2022-12-03T14:46:34.809Z,36.42
2022-12-03T14:49:01.226Z,36.05
2022-12-03T14:51:27.578Z,46.35
2022-12-03T14:53:53.861Z,43.58
2022-12-03T14:56:20.293Z,38.08
2022-12-03T14:58:46.676Z,47.17
2022-12-03T15:01:13.075Z,42.83
2022-12-03T15:03:39.454Z,49.47
2022-12-03T15:06:05.829Z,41.75
2022-12-03T15:08:32.149Z,43.55
2022-12-03T15:10:58.544Z,46.05
2022-12-03T15:13:24.840Z,41.65
2022-12-03T15:15:51.129Z,48.50
2022-12-03T15:18:17.503Z,48.70
2022-12-03T15:20:43.827Z,51.75
2022-12-03T15:23:14.234Z,44.10
2022-12-03T15:25:41.082Z,46.60
2022-12-03T15:28:07.445Z,46.47
2022-12-03T15:30:35.797Z,47.63
2022-12-03T15:33:02.682Z,49.35
2022-12-03T15:35:32.202Z,49.30
2022-12-03T15:37:58.634Z,49.63
2022-12-03T15:40:25.319Z,50.03
2022-12-03T15:42:51.754Z,43.97
2022-12-03T15:45:18.209Z,41.47
2022-12-03T15:47:44.697Z,44.97
2022-12-03T15:50:12.181Z,44.00
2022-12-03T15:52:38.581Z,40.60
2022-12-03T15:55:05.025Z,44.50
2022-12-03T15:57:31.407Z,45.65
2022-12-03T15:59:57.794Z,45.33
2022-12-03T16:02:24.226Z,43.40
2022-12-03T16:04:50.584Z,49.45
2022-12-03T16:07:16.885Z,41.33
2022-12-03T16:09:43.168Z,46.33
2022-12-03T16:12:09.494Z,42.60
2022-12-03T16:14:35.924Z,38.25
2022-12-03T16:17:02.635Z,41.15
2022-12-03T16:19:29.016Z,38.55
2022-12-03T16:21:55.323Z,41.42
2022-12-03T16:24:21.659Z,38.53
2022-12-03T16:26:47.947Z,40.63
2022-12-03T16:29:15.039Z,37.10
2022-12-03T16:31:41.571Z,38.55
2022-12-03T16:34:07.928Z,36.90
2022-12-03T16:36:34.311Z,40.70
2022-12-03T16:39:00.719Z,36.95
2022-12-03T16:41:27.039Z,36.90
2022-12-03T16:43:53.398Z,33.70
2022-12-03T16:46:26.085Z,31.27
2022-12-03T16:48:55.210Z,31.65
2022-12-03T16:51:21.730Z,29.90
2022-12-03T16:53:48.425Z,29.65
2022-12-03T16:56:14.780Z,33.85
2022-12-03T16:58:41.359Z,23.83
2022-12-03T17:01:07.774Z,28.48
2022-12-03T17:03:34.404Z,33.83
2022-12-03T17:06:00.825Z,34.53
2022-12-03T17:08:27.198Z,33.75
2022-12-03T17:10:53.695Z,30.50
2022-12-03T17:13:20.126Z,27.13
2022-12-03T17:15:46.523Z,34.47
2022-12-03T17:18:12.859Z,35.22
2022-12-03T17:20:39.201Z,31.05
2022-12-03T17:23:05.528Z,29.60
2022-12-03T17:25:31.824Z,31.30
2022-12-03T17:27:58.146Z,34.30
2022-12-03T17:30:24.555Z,33.97
2022-12-03T17:32:50.877Z,35.38
2022-12-03T17:35:17.769Z,35.78
2022-12-03T17:37:44.093Z,34.53
2022-12-03T17:40:11.777Z,37.67
2022-12-03T17:42:38.139Z,33.05
2022-12-03T17:45:04.739Z,36.90
2022-12-03T17:47:31.038Z,35.92
2022-12-03T17:49:57.627Z,32.53
2022-12-03T17:52:24.395Z,37.25
2022-12-03T18:00:03.702Z,37.80
2022-12-03T18:02:30.035Z,35.72
2022-12-03T18:04:56.452Z,42.53
2022-12-03T18:07:22.722Z,36.53
2022-12-03T18:09:49.102Z,36.70
2022-12-03T18:12:15.416Z,45.72
2022-12-03T18:14:41.730Z,40.08
2022-12-03T18:17:08.101Z,41.08
2022-12-03T18:19:34.418Z,44.72
2022-12-03T18:22:00.722Z,42.40
2022-12-03T18:24:27.260Z,41.75
2022-12-03T18:26:53.651Z,41.00
2022-12-03T18:29:19.970Z,41.40
2022-12-03T18:31:46.371Z,42.58
2022-12-03T18:34:12.867Z,41.78
2022-12-03T18:36:39.234Z,44.65
2022-12-03T18:39:08.334Z,45.15
2022-12-03T18:41:34.966Z,38.90
2022-12-03T18:44:02.819Z,39.28
2022-12-03T18:46:52.327Z,40.15
2022-12-03T18:51:41.794Z,42.22
2022-12-03T18:54:14.364Z,46.53
2022-12-03T18:56:41.255Z,42.25
2022-12-03T18:59:07.746Z,44.65
2022-12-03T19:01:34.438Z,41.40
2022-12-03T19:04:01.059Z,46.28
2022-12-03T19:06:29.168Z,41.53
2022-12-03T19:08:55.503Z,38.75
2022-12-03T19:11:22.267Z,47.67
2022-12-03T19:13:48.575Z,43.60
2022-12-03T19:16:17.067Z,47.67
2022-12-03T19:18:43.669Z,47.75
2022-12-03T19:21:10.923Z,53.22
2022-12-03T19:23:37.492Z,41.85
2022-12-03T19:26:04.939Z,47.47
2022-12-03T19:28:31.793Z,49.80
2022-12-03T19:31:09.097Z,43.38
2022-12-03T19:33:35.579Z,50.00
2022-12-03T19:36:02.732Z,47.00
2022-12-03T19:38:29.999Z,46.10
2022-12-03T19:41:00.371Z,48.00
2022-12-03T19:43:26.822Z,49.55
2022-12-03T19:45:54.430Z,48.42
2022-12-03T19:48:22.584Z,53.08
2022-12-03T19:50:58.334Z,47.00
2022-12-03T19:53:36.829Z,50.35
2022-12-03T19:56:12.906Z,49.65
2022-12-03T19:58:40.162Z,51.13
2022-12-03T20:01:07.786Z,49.53
2022-12-03T20:03:34.754Z,50.45
2022-12-03T20:06:02.139Z,50.63
2022-12-03T20:08:28.552Z,48.45
2022-12-03T20:10:54.874Z,52.70
2022-12-03T20:13:21.375Z,54.75
2022-12-03T20:15:47.669Z,48.03
2022-12-03T20:18:14.013Z,50.58
2022-12-03T20:20:40.320Z,47.83
2022-12-03T20:23:06.622Z,54.28
2022-12-03T20:25:37.909Z,52.72
2022-12-03T20:28:04.362Z,50.25
2022-12-03T20:30:30.684Z,49.00
2022-12-03T20:32:57.003Z,50.40
2022-12-03T20:35:23.328Z,52.35
2022-12-03T20:37:49.639Z,49.38
2022-12-03T20:40:16.053Z,55.53
2022-12-03T20:42:46.242Z,44.88
2022-12-03T20:45:12.542Z,51.95
2022-12-03T20:47:38.826Z,47.95
2022-12-03T20:50:05.528Z,46.58
2022-12-03T20:52:32.021Z,47.75
2022-12-03T20:54:58.338Z,45.70
2022-12-03T20:57:24.648Z,47.00
2022-12-03T20:59:51.029Z,44.67
2022-12-03T21:02:17.578Z,47.72
2022-12-03T21:04:43.984Z,51.88
2022-12-03T21:07:10.392Z,44.65
2022-12-03T21:09:36.835Z,49.60
2022-12-03T21:12:03.243Z,45.80
2022-12-03T21:14:29.668Z,39.08
2022-12-03T21:17:11.965Z,48.70
2022-12-03T21:19:38.747Z,47.67
2022-12-03T21:22:05.657Z,44.78
2022-12-03T21:24:33.143Z,47.47
2022-12-03T21:26:59.452Z,44.50
2022-12-03T21:29:25.786Z,44.78
2022-12-03T21:31:52.233Z,47.22
2022-12-03T21:34:18.678Z,41.15
2022-12-03T21:36:46.159Z,47.88
2022-12-03T21:39:12.550Z,44.47
2022-12-03T21:41:38.953Z,41.97
2022-12-03T21:44:05.442Z,39.58
2022-12-03T21:47:11.512Z,42.35
2022-12-03T21:51:46.360Z,40.55
2022-12-03T21:54:12.815Z,41.67
2022-12-03T21:56:39.195Z,52.03
2022-12-03T21:59:05.521Z,42.58
2022-12-03T22:01:31.947Z,39.83
2022-12-03T22:03:58.324Z,41.05
2022-12-03T22:06:24.809Z,39.92
2022-12-03T22:08:51.122Z,43.33
2022-12-03T22:11:21.478Z,41.63
2022-12-03T22:13:48.036Z,41.53
2022-12-03T22:16:15.798Z,42.63
2022-12-03T22:18:42.640Z,45.28
2022-12-03T22:21:10.403Z,39.83
2022-12-03T22:23:36.891Z,44.38
2022-12-03T22:26:07.788Z,41.92
2022-12-03T22:28:34.453Z,43.38
2022-12-03T22:31:05.246Z,42.58
2022-12-03T22:33:31.614Z,44.08
2022-12-03T22:35:58.987Z,46.03
2022-12-03T22:38:25.357Z,42.97
2022-12-03T22:40:51.821Z,42.30
2022-12-03T22:43:18.428Z,40.97
2022-12-03T22:45:44.719Z,42.78
2022-12-03T22:48:11.124Z,43.83
2022-12-03T22:50:41.450Z,39.58
2022-12-03T22:53:07.723Z,49.40
2022-12-03T22:55:34.005Z,42.90
2022-12-03T22:58:00.390Z,42.35
2022-12-03T23:00:29.248Z,43.30
2022-12-03T23:02:55.649Z,42.35
2022-12-03T23:05:22.018Z,41.47
2022-12-03T23:07:48.367Z,39.55
2022-12-03T23:10:14.899Z,40.63
2022-12-03T23:12:41.292Z,38.92
2022-12-03T23:15:08.403Z,42.22
2022-12-03T23:17:34.701Z,44.05
2022-12-03T23:20:00.993Z,47.10
2022-12-03T23:22:27.306Z,41.75
2022-12-03T23:24:53.690Z,47.22
2022-12-03T23:27:20.007Z,44.28
2022-12-03T23:29:46.693Z,41.63
2022-12-03T23:32:13.366Z,38.78
2022-12-03T23:34:39.715Z,44.15
2022-12-03T23:37:06.156Z,37.83
2022-12-03T23:39:32.438Z,43.42
2022-12-03T23:41:58.823Z,43.50
2022-12-03T23:44:26.837Z,42.08
2022-12-03T23:46:53.215Z,42.92
2022-12-03T23:49:19.616Z,39.38
2022-12-03T23:51:45.934Z,47.80
2022-12-03T23:54:12.301Z,40.85
2022-12-03T23:56:39.451Z,40.72
2022-12-03T23:59:05.790Z,43.75
